Time;durP1;ratioP1;P1;durP2;ratioP2;P2;SDS_P1;SDS_P2;PMS_P1;PMS_P2;Temp;Humidity;BMP_temperature;BMP_pressure;BME280_temperature;BME280_humidity;BME280_pressure;Samples;Min_cycle;Max_cycle;Signal;HPM_P1;HPM_P2
2023/03/08 00:01:26;;;;;;;1.67;1.30;;;20.40;65.80;;;;;;5044118;28;20591;-61
2023/03/08 00:03:54;;;;;;;1.35;1.20;;;20.40;65.80;;;;;;5046153;28;20230;-61
2023/03/08 00:06:21;;;;;;;1.30;1.13;;;20.40;65.80;;;;;;5044732;28;20195;-61
2023/03/08 00:08:49;;;;;;;1.30;1.13;;;20.40;65.80;;;;;;5047269;28;20199;-61
2023/03/08 00:11:17;;;;;;;1.30;1.05;;;20.40;65.80;;;;;;5049534;28;20215;-61
2023/03/08 00:13:43;;;;;;;1.30;1.20;;;20.30;65.70;;;;;;5043701;28;20215;-61
2023/03/08 00:16:12;;;;;;;1.50;1.40;;;20.30;65.70;;;;;;5043826;28;20210;-61
2023/03/08 00:18:39;;;;;;;1.52;1.15;;;20.40;65.80;;;;;;5040634;28;20640;-61
2023/03/08 00:21:09;;;;;;;1.40;1.30;;;20.40;65.70;;;;;;5048545;28;20558;-62
2023/03/08 00:23:36;;;;;;;1.60;1.17;;;20.40;65.70;;;;;;5043204;28;20241;-61
2023/03/08 00:26:04;;;;;;;1.60;1.17;;;20.40;65.70;;;;;;5043703;28;20196;-62
2023/03/08 00:28:31;;;;;;;2.72;1.35;;;20.40;65.70;;;;;;5047394;28;20195;-61
2023/03/08 00:30:59;;;;;;;1.40;1.05;;;20.30;65.60;;;;;;5046243;28;20203;-61
2023/03/08 00:33:26;;;;;;;1.17;1.08;;;20.40;65.70;;;;;;5037766;28;20274;-61
2023/03/08 00:35:57;;;;;;;1.40;1.10;;;20.30;65.50;;;;;;5038406;28;20703;-61
2023/03/08 00:38:24;;;;;;;2.08;1.65;;;20.30;65.50;;;;;;5048188;28;20208;-61
2023/03/08 00:40:51;;;;;;;1.65;1.55;;;20.30;65.40;;;;;;5048018;28;20199;-61
2023/03/08 00:43:19;;;;;;;1.65;1.40;;;20.30;65.40;;;;;;5048137;28;20218;-60
2023/03/08 00:45:46;;;;;;;1.27;1.17;;;20.30;65.50;;;;;;5048078;28;20203;-61
2023/03/08 00:48:13;;;;;;;1.40;1.30;;;20.30;65.40;;;;;;5050075;28;20200;-61
2023/03/08 00:50:39;;;;;;;1.42;1.30;;;20.30;65.40;;;;;;5050307;28;20559;-61
2023/03/08 00:53:07;;;;;;;2.33;1.30;;;20.30;65.40;;;;;;5052045;28;20218;-63
2023/03/08 00:55:34;;;;;;;1.70;1.25;;;20.30;65.40;;;;;;5051548;28;20674;-61
2023/03/08 00:58:01;;;;;;;1.40;1.30;;;20.30;65.30;;;;;;5050665;28;20200;-60
2023/03/08 01:00:29;;;;;;;1.80;1.30;;;20.30;65.30;;;;;;5051845;28;20199;-60
2023/03/08 01:02:56;;;;;;;1.85;1.33;;;20.30;65.30;;;;;;5050967;28;20556;-62
2023/03/08 01:05:23;;;;;;;1.67;1.40;;;20.30;65.30;;;;;;5048286;28;20563;-62
2023/03/08 01:07:50;;;;;;;1.75;1.38;;;20.30;65.30;;;;;;5045317;28;20198;-62
2023/03/08 01:10:17;;;;;;;1.55;1.45;;;20.30;65.30;;;;;;5051218;28;20196;-60
2023/03/08 01:12:44;;;;;;;2.00;1.30;;;20.30;65.30;;;;;;5043637;28;20196;-60
2023/03/08 01:15:11;;;;;;;1.75;1.35;;;20.30;65.20;;;;;;5042718;28;20204;-63
2023/03/08 01:17:39;;;;;;;1.50;1.20;;;20.30;65.20;;;;;;5045461;28;20196;-60
2023/03/08 01:20:07;;;;;;;3.55;1.35;;;20.30;65.20;;;;;;5052093;28;20202;-61
2023/03/08 01:22:34;;;;;;;1.70;1.38;;;20.30;65.20;;;;;;5047916;28;20227;-61
2023/03/08 01:25:00;;;;;;;1.77;1.42;;;20.30;65.20;;;;;;5046622;28;20204;-60
2023/03/08 01:27:27;;;;;;;1.20;1.00;;;20.30;65.20;;;;;;5046242;28;20203;-61
2023/03/08 01:29:54;;;;;;;1.83;1.50;;;20.20;65.10;;;;;;5045970;28;20532;-61
2023/03/08 01:32:20;;;;;;;1.65;1.20;;;20.20;65.00;;;;;;5040114;28;20203;-62
2023/03/08 01:34:48;;;;;;;1.10;0.98;;;20.20;65.00;;;;;;5046761;28;20208;-63
2023/03/08 01:37:15;;;;;;;1.83;1.10;;;20.20;65.10;;;;;;5048463;28;20211;-63
2023/03/08 01:39:42;;;;;;;1.10;1.00;;;20.20;65.00;;;;;;5049379;28;20267;-62
2023/03/08 01:42:09;;;;;;;1.38;1.20;;;20.20;65.00;;;;;;5045919;28;20192;-62
2023/03/08 01:44:53;;;;;;;1.30;1.20;;;20.20;65.00;;;;;;5041850;28;20219;-63
2023/03/08 01:47:21;;;;;;;1.58;1.23;;;20.20;65.00;;;;;;5049518;28;20199;-62
2023/03/08 01:49:52;;;;;;;1.20;1.08;;;20.20;65.00;;;;;;5048221;28;20222;-63
2023/03/08 01:52:21;;;;;;;1.30;1.13;;;20.20;65.00;;;;;;5049088;28;20206;-62
2023/03/08 01:54:51;;;;;;;1.48;1.38;;;20.20;64.90;;;;;;5036092;28;20490;-62
2023/03/08 01:57:21;;;;;;;1.88;1.15;;;20.20;65.00;;;;;;5050840;28;20196;-62
2023/03/08 01:59:49;;;;;;;1.30;1.15;;;20.20;64.90;;;;;;5049585;28;20199;-62
2023/03/08 02:05:07;;;;;;;2.70;1.40;;;20.20;64.90;;;;;;5046681;28;20682;-62
2023/03/08 02:07:33;;;;;;;1.80;1.13;;;20.20;64.90;;;;;;5044790;28;20198;-62
2023/03/08 02:10:00;;;;;;;1.20;1.00;;;20.20;64.80;;;;;;5049850;28;20207;-63
2023/03/08 02:12:27;;;;;;;1.45;1.30;;;20.20;64.80;;;;;;5050281;28;20571;-62
2023/03/08 02:14:55;;;;;;;1.52;1.10;;;20.20;64.80;;;;;;5040469;28;20422;-62
2023/03/08 02:17:22;;;;;;;1.35;1.25;;;20.20;64.80;;;;;;5042573;28;20188;-62
2023/03/08 02:19:53;;;;;;;1.83;1.40;;;20.20;64.70;;;;;;5050455;28;20223;-63
2023/03/08 02:22:22;;;;;;;1.67;1.45;;;20.20;64.70;;;;;;5050909;28;20567;-61
2023/03/08 02:24:50;;;;;;;1.20;1.10;;;20.20;64.70;;;;;;5051135;28;20550;-60
2023/03/08 02:27:20;;;;;;;1.50;1.40;;;20.20;64.70;;;;;;5047524;28;20191;-63
2023/03/08 02:29:46;;;;;;;1.60;1.45;;;20.20;64.70;;;;;;5049671;28;20200;-61
2023/03/08 02:32:14;;;;;;;2.85;1.65;;;20.20;64.70;;;;;;5040944;28;20210;-61
2023/03/08 02:34:41;;;;;;;1.45;1.35;;;20.20;64.70;;;;;;5046642;28;20199;-61
2023/03/08 02:37:08;;;;;;;1.42;1.20;;;20.20;64.70;;;;;;5049709;28;20200;-61
2023/03/08 02:39:34;;;;;;;1.38;1.10;;;20.20;64.70;;;;;;5047582;28;20235;-61
2023/03/08 02:42:02;;;;;;;1.23;1.13;;;20.20;64.70;;;;;;5047609;28;20203;-60
2023/03/08 02:44:29;;;;;;;1.33;1.17;;;20.10;64.50;;;;;;5042547;28;20216;-62
2023/03/08 02:46:56;;;;;;;1.50;1.40;;;20.10;65.30;;;;;;5046459;28;20191;-62
2023/03/08 02:49:23;;;;;;;1.23;1.13;;;20.10;64.50;;;;;;5044640;28;20555;-62
2023/03/08 02:51:49;;;;;;;1.50;1.10;;;20.10;64.50;;;;;;5049756;28;20191;-62
2023/03/08 02:54:16;;;;;;;1.55;1.20;;;20.10;64.40;;;;;;5047989;28;20204;-62
2023/03/08 02:56:43;;;;;;;1.38;1.27;;;20.10;64.40;;;;;;5049163;28;20203;-62
2023/03/08 02:59:11;;;;;;;1.55;1.38;;;20.10;64.40;;;;;;5049464;28;20659;-62
2023/03/08 03:01:37;;;;;;;1.20;1.10;;;20.10;64.40;;;;;;5049676;28;20207;-62
2023/03/08 03:04:04;;;;;;;1.20;1.10;;;20.10;64.40;;;;;;5045192;28;20223;-63
2023/03/08 03:06:32;;;;;;;2.25;1.35;;;20.10;64.40;;;;;;5046904;28;20203;-63
2023/03/08 03:08:59;;;;;;;1.77;1.20;;;20.10;64.40;;;;;;5049663;28;20263;-62
2023/03/08 03:11:25;;;;;;;1.30;1.20;;;20.10;64.30;;;;;;5050925;28;20203;-62
2023/03/08 03:13:57;;;;;;;1.20;1.10;;;20.10;64.30;;;;;;5047415;28;20203;-62
2023/03/08 03:16:25;;;;;;;1.17;1.08;;;20.10;64.30;;;;;;5045436;28;20215;-63
2023/03/08 03:18:53;;;;;;;1.40;1.30;;;20.10;64.30;;;;;;5048250;28;20199;-63
2023/03/08 03:21:20;;;;;;;2.10;1.38;;;20.10;64.30;;;;;;5049365;28;20580;-63
2023/03/08 03:23:47;;;;;;;1.30;1.10;;;20.10;64.30;;;;;;5046004;28;20215;-62
2023/03/08 03:26:16;;;;;;;1.25;1.15;;;20.10;64.30;;;;;;5041464;28;20200;-62
2023/03/08 03:28:43;;;;;;;1.15;1.05;;;20.10;64.20;;;;;;5045702;28;20284;-62
2023/03/08 03:31:12;;;;;;;1.10;1.00;;;20.10;64.90;;;;;;5049880;28;20210;-62
2023/03/08 03:33:40;;;;;;;1.50;1.40;;;20.10;64.20;;;;;;5045903;28;20203;-62
2023/03/08 03:36:10;;;;;;;1.35;1.23;;;20.10;64.10;;;;;;5046016;28;20211;-60
2023/03/08 03:38:36;;;;;;;1.35;1.17;;;20.10;64.00;;;;;;5044110;28;20230;-62
2023/03/08 03:41:05;;;;;;;1.80;1.70;;;20.10;64.00;;;;;;5037418;28;20422;-60
2023/03/08 03:43:32;;;;;;;1.38;1.25;;;20.10;64.00;;;;;;5043656;28;20223;-61
2023/03/08 03:46:01;;;;;;;1.10;0.98;;;20.10;64.10;;;;;;5044396;28;20573;-60
2023/03/08 03:48:28;;;;;;;1.40;1.27;;;20.10;64.00;;;;;;5040170;28;20196;-62
2023/03/08 03:50:58;;;;;;;1.35;1.00;;;20.10;64.00;;;;;;5046584;28;20210;-62
2023/03/08 03:53:25;;;;;;;1.52;1.40;;;20.10;64.00;;;;;;5053152;28;20210;-61
2023/03/08 03:55:52;;;;;;;1.30;1.05;;;20.10;63.90;;;;;;5042544;28;20211;-61
2023/03/08 03:58:18;;;;;;;1.45;1.20;;;20.10;63.90;;;;;;5045622;28;20195;-60
2023/03/08 04:00:45;;;;;;;1.52;1.00;;;20.10;63.90;;;;;;5044524;28;20196;-60
2023/03/08 04:03:12;;;;;;;1.20;1.02;;;20.10;64.60;;;;;;5045437;28;20567;-63
2023/03/08 04:05:39;;;;;;;1.40;1.30;;;20.10;63.80;;;;;;5047406;28;20663;-61
2023/03/08 04:08:07;;;;;;;1.35;1.25;;;20.10;63.80;;;;;;5040371;28;20199;-60
2023/03/08 04:10:35;;;;;;;1.30;1.17;;;20.00;64.50;;;;;;5040560;28;20192;-63
2023/03/08 04:13:01;;;;;;;1.30;1.20;;;20.00;63.70;;;;;;5048306;28;20195;-63
2023/03/08 04:15:28;;;;;;;1.52;1.20;;;20.10;63.70;;;;;;5046470;28;20215;-62
2023/03/08 04:17:55;;;;;;;1.40;1.20;;;20.00;63.60;;;;;;5047440;28;20191;-63
2023/03/08 04:20:22;;;;;;;1.30;1.20;;;20.00;63.60;;;;;;5046092;28;20207;-61
2023/03/08 04:22:48;;;;;;;1.40;1.25;;;20.00;63.50;;;;;;5049150;28;20298;-61
2023/03/08 04:25:17;;;;;;;1.50;1.40;;;20.00;63.50;;;;;;5040424;28;20609;-61
2023/03/08 04:27:43;;;;;;;1.63;1.30;;;20.00;63.50;;;;;;5045800;28;20204;-62
2023/03/08 04:30:11;;;;;;;1.48;1.38;;;20.00;63.50;;;;;;5046271;28;20651;-61
2023/03/08 04:32:38;;;;;;;1.27;1.10;;;20.00;63.50;;;;;;5041042;28;20200;-62
2023/03/08 04:35:06;;;;;;;1.48;1.20;;;20.00;64.30;;;;;;5040403;28;20206;-62
2023/03/08 04:37:32;;;;;;;1.30;1.20;;;20.00;63.50;;;;;;5047999;28;20206;-62
2023/03/08 04:39:59;;;;;;;1.20;1.10;;;20.00;63.50;;;;;;5041637;28;20222;-62
2023/03/08 04:42:27;;;;;;;1.13;1.02;;;20.00;63.50;;;;;;5045938;28;20199;-63
2023/03/08 04:44:54;;;;;;;1.60;1.42;;;20.00;63.40;;;;;;5043385;28;20211;-63
2023/03/08 04:47:21;;;;;;;1.35;1.17;;;20.00;63.40;;;;;;5047783;28;20191;-62
2023/03/08 04:49:47;;;;;;;5.68;1.40;;;20.00;63.40;;;;;;5040994;28;20192;-62
2023/03/08 04:52:14;;;;;;;1.42;1.20;;;20.00;63.40;;;;;;5047237;28;20211;-62
2023/03/08 04:54:41;;;;;;;6.93;1.85;;;20.00;63.50;;;;;;5041701;28;20573;-63
2023/03/08 04:57:07;;;;;;;1.42;1.17;;;20.00;63.40;;;;;;5040305;28;20203;-63
2023/03/08 04:59:36;;;;;;;1.55;1.30;;;20.00;63.50;;;;;;5047956;28;20196;-63
2023/03/08 05:02:03;;;;;;;1.15;1.05;;;20.00;63.50;;;;;;5044654;28;20549;-62
2023/03/08 05:04:30;;;;;;;1.85;1.20;;;20.00;64.30;;;;;;5043987;28;20220;-62
2023/03/08 05:06:56;;;;;;;6.40;1.67;;;20.00;63.50;;;;;;5049300;28;20203;-62
2023/03/08 05:09:23;;;;;;;1.52;1.25;;;20.00;63.60;;;;;;5046803;28;20206;-62
2023/03/08 05:11:50;;;;;;;1.20;1.00;;;20.00;63.70;;;;;;5048182;28;20193;-62
2023/03/08 05:14:17;;;;;;;1.30;1.00;;;20.00;63.70;;;;;;5047706;28;20234;-62
2023/03/08 05:16:45;;;;;;;1.70;1.42;;;20.00;63.70;;;;;;5044618;28;20207;-63
2023/03/08 05:19:11;;;;;;;1.10;1.00;;;20.00;63.80;;;;;;5045665;28;20196;-62
2023/03/08 05:21:38;;;;;;;1.50;1.10;;;20.00;63.80;;;;;;5043440;28;20231;-62
2023/03/08 05:24:06;;;;;;;1.10;0.95;;;20.00;63.80;;;;;;5045879;28;20246;-62
2023/03/08 05:26:33;;;;;;;1.38;1.27;;;20.00;64.70;;;;;;5042850;28;20202;-63
2023/03/08 05:29:02;;;;;;;2.30;1.23;;;20.00;63.90;;;;;;5043273;28;20204;-62
2023/03/08 05:31:29;;;;;;;1.40;1.20;;;20.00;64.80;;;;;;5044724;28;20191;-62
2023/03/08 05:33:57;;;;;;;1.65;1.10;;;20.00;63.90;;;;;;5050171;28;20206;-63
2023/03/08 05:36:23;;;;;;;1.63;1.52;;;20.00;63.90;;;;;;5051304;28;20652;-62
2023/03/08 05:38:53;;;;;;;1.40;1.30;;;20.00;64.00;;;;;;5049142;28;20208;-62
2023/03/08 05:41:19;;;;;;;1.30;1.20;;;20.00;64.00;;;;;;5049932;28;20188;-62
2023/03/08 05:43:46;;;;;;;1.20;1.10;;;20.00;64.00;;;;;;5050945;28;20560;-63
2023/03/08 05:46:14;;;;;;;1.30;1.20;;;20.00;64.00;;;;;;5048770;28;20199;-62
2023/03/08 05:48:41;;;;;;;2.95;1.50;;;20.00;64.00;;;;;;5049931;28;20207;-62
2023/03/08 05:51:11;;;;;;;1.88;1.38;;;20.00;64.10;;;;;;5050533;28;20663;-62
2023/03/08 05:53:38;;;;;;;1.10;1.00;;;20.00;64.10;;;;;;5049796;28;20226;-62
2023/03/08 05:56:10;;;;;;;1.38;1.17;;;20.00;64.10;;;;;;5046302;28;20203;-62
2023/03/08 05:58:37;;;;;;;1.38;1.00;;;20.00;64.20;;;;;;5046944;28;20482;-62
2023/03/08 06:01:10;;;;;;;1.08;0.93;;;20.00;64.20;;;;;;5043137;28;20203;-63
2023/03/08 06:03:36;;;;;;;1.10;0.98;;;20.00;64.20;;;;;;5048158;28;20233;-63
2023/03/08 06:06:03;;;;;;;1.20;1.10;;;20.00;64.30;;;;;;5037373;28;20594;-61
2023/03/08 06:08:31;;;;;;;1.35;1.00;;;20.00;64.20;;;;;;5051631;28;20206;-63
2023/03/08 06:10:58;;;;;;;1.20;1.10;;;20.00;64.30;;;;;;5046118;28;20565;-62
2023/03/08 06:13:25;;;;;;;1.20;1.10;;;20.00;64.30;;;;;;5041838;28;20192;-63
2023/03/08 06:15:54;;;;;;;1.20;1.10;;;20.00;64.30;;;;;;5047968;28;20571;-61
2023/03/08 06:18:21;;;;;;;1.40;0.90;;;20.00;64.30;;;;;;5042730;28;20616;-60
2023/03/08 06:20:58;;;;;;;1.00;0.90;;;20.00;64.30;;;;;;5049270;28;20204;-63
2023/03/08 06:23:25;;;;;;;1.30;1.15;;;20.00;64.30;;;;;;5049735;28;20222;-63
2023/03/08 06:25:54;;;;;;;1.10;1.00;;;20.00;64.30;;;;;;5041153;28;20230;-63
2023/03/08 06:28:20;;;;;;;1.30;1.10;;;20.00;64.40;;;;;;5043853;28;20202;-61
2023/03/08 06:30:49;;;;;;;1.35;0.90;;;20.00;64.40;;;;;;5047928;28;20203;-62
2023/03/08 06:33:16;;;;;;;1.23;1.13;;;20.00;64.40;;;;;;5049189;28;20223;-61
2023/03/08 06:35:43;;;;;;;1.10;1.00;;;20.00;64.40;;;;;;5043310;28;20199;-63
2023/03/08 06:38:10;;;;;;;1.00;0.90;;;20.00;64.40;;;;;;5047089;28;20679;-63
2023/03/08 06:40:36;;;;;;;1.10;1.00;;;20.00;64.50;;;;;;5040522;28;20195;-61
2023/03/08 06:43:04;;;;;;;1.10;1.00;;;20.00;64.40;;;;;;5044975;28;20439;-63
2023/03/08 06:45:32;;;;;;;1.30;1.17;;;20.00;64.40;;;;;;5047762;28;20775;-62
2023/03/08 06:47:59;;;;;;;1.27;1.00;;;20.00;64.40;;;;;;5042060;28;20590;-63
2023/03/08 06:50:26;;;;;;;1.30;1.20;;;19.90;64.30;;;;;;5045286;28;20200;-62
2023/03/08 06:52:52;;;;;;;1.00;0.90;;;19.90;64.30;;;;;;5051050;28;20199;-62
2023/03/08 06:55:19;;;;;;;1.33;1.20;;;19.90;64.30;;;;;;5046934;28;20208;-60
2023/03/08 06:57:46;;;;;;;1.20;0.88;;;19.90;64.40;;;;;;5045728;28;20660;-62
2023/03/08 07:00:15;;;;;;;1.00;0.90;;;19.90;64.50;;;;;;5047626;28;20199;-62
2023/03/08 07:02:42;;;;;;;1.10;0.90;;;19.90;64.50;;;;;;5047937;28;20200;-62
2023/03/08 07:05:09;;;;;;;2.35;1.10;;;19.90;64.50;;;;;;5048393;28;20211;-62
2023/03/08 07:07:37;;;;;;;1.20;1.00;;;19.90;64.50;;;;;;5049882;28;20196;-62
2023/03/08 07:10:04;;;;;;;1.13;1.00;;;19.90;64.50;;;;;;5037725;28;20201;-62
2023/03/08 07:12:31;;;;;;;1.23;0.95;;;20.00;64.60;;;;;;5049981;28;20204;-61
2023/03/08 07:14:57;;;;;;;1.60;1.00;;;20.00;64.60;;;;;;5047648;28;20204;-62
2023/03/08 07:17:26;;;;;;;1.27;1.10;;;20.00;64.50;;;;;;5044907;28;20210;-61
2023/03/08 07:19:52;;;;;;;1.20;1.00;;;20.00;64.60;;;;;;5041619;28;20203;-62
2023/03/08 07:22:19;;;;;;;1.15;1.05;;;20.00;64.60;;;;;;5049115;28;20557;-62
2023/03/08 07:24:47;;;;;;;1.00;0.90;;;20.00;64.60;;;;;;5045051;28;20220;-61
2023/03/08 07:27:14;;;;;;;1.00;0.90;;;20.00;64.60;;;;;;5045012;28;20219;-62
2023/03/08 07:29:41;;;;;;;1.17;1.08;;;20.10;64.70;;;;;;5042672;28;20192;-61
2023/03/08 07:32:08;;;;;;;1.10;0.90;;;20.10;64.70;;;;;;5040588;28;20204;-62
2023/03/08 07:34:36;;;;;;;1.13;1.02;;;20.10;64.70;;;;;;5049979;28;20203;-61
2023/03/08 07:37:02;;;;;;;1.33;0.90;;;20.10;64.70;;;;;;5046464;28;20195;-61
2023/03/08 07:39:29;;;;;;;1.48;1.35;;;20.10;64.70;;;;;;5050862;28;20661;-61
2023/03/08 07:41:56;;;;;;;1.30;1.20;;;20.00;64.40;;;;;;5043687;28;20199;-60
2023/03/08 07:44:23;;;;;;;1.20;1.10;;;20.10;64.40;;;;;;5050269;28;20207;-61
2023/03/08 07:46:49;;;;;;;1.63;1.20;;;20.00;65.00;;;;;;5049132;28;20199;-60
2023/03/08 07:49:16;;;;;;;1.40;1.30;;;20.00;64.20;;;;;;5042402;28;20249;-60
2023/03/08 07:51:44;;;;;;;1.10;1.00;;;20.00;64.00;;;;;;5048093;28;20203;-62
2023/03/08 07:54:11;;;;;;;1.40;1.00;;;20.00;64.20;;;;;;5048249;28;20199;-62
2023/03/08 07:56:38;;;;;;;2.45;1.17;;;20.00;64.70;;;;;;5047809;28;20286;-62
2023/03/08 07:59:05;;;;;;;5.18;1.63;;;19.90;65.00;;;;;;5042340;28;20238;-62
2023/03/08 08:01:32;;;;;;;1.42;1.05;;;19.90;65.10;;;;;;5041569;28;20196;-62
2023/03/08 08:03:59;;;;;;;8.55;1.45;;;19.90;65.10;;;;;;5046749;28;20231;-58
2023/03/08 08:06:26;;;;;;;5.80;1.55;;;20.10;65.70;;;;;;5042112;28;20556;-58
2023/03/08 08:08:54;;;;;;;6.35;1.38;;;20.10;65.30;;;;;;5049622;28;20195;-58
2023/03/08 08:11:21;;;;;;;3.05;1.48;;;20.00;64.90;;;;;;5047737;28;20203;-56
2023/03/08 08:13:49;;;;;;;1.10;1.00;;;20.00;64.90;;;;;;5048844;28;20191;-60
2023/03/08 08:16:16;;;;;;;1.40;1.30;;;20.00;64.90;;;;;;5046277;28;20211;-62
2023/03/08 08:18:43;;;;;;;1.58;1.20;;;20.00;64.90;;;;;;5044775;28;20195;-62
2023/03/08 08:21:12;;;;;;;1.67;1.17;;;20.00;65.00;;;;;;5046434;28;20199;-59
2023/03/08 08:23:39;;;;;;;2.50;1.05;;;20.00;65.00;;;;;;5036440;28;20203;-60
2023/03/08 08:26:09;;;;;;;4.35;1.15;;;20.00;65.00;;;;;;5043988;28;20215;-62
2023/03/08 08:28:38;;;;;;;2.72;1.35;;;20.00;65.10;;;;;;5042962;28;20202;-63
2023/03/08 08:31:07;;;;;;;1.45;0.95;;;20.00;65.10;;;;;;5046338;28;20195;-61
2023/03/08 08:33:34;;;;;;;2.33;1.30;;;20.00;65.10;;;;;;5045924;28;20214;-61
2023/03/08 08:36:04;;;;;;;1.90;1.02;;;20.00;65.20;;;;;;5047869;28;20236;-62
2023/03/08 08:38:31;;;;;;;1.35;1.25;;;20.00;65.10;;;;;;5046107;28;20678;-60
2023/03/08 08:40:59;;;;;;;2.00;1.30;;;20.00;65.10;;;;;;5046288;28;20200;-62
2023/03/08 08:43:27;;;;;;;1.27;1.13;;;20.00;65.10;;;;;;5048450;28;20611;-56
2023/03/08 08:45:56;;;;;;;16.70;1.38;;;20.00;65.10;;;;;;5046524;28;20230;-61
2023/03/08 08:48:24;;;;;;;1.13;1.02;;;20.00;65.10;;;;;;5046681;28;20671;-58
2023/03/08 08:50:51;;;;;;;2.53;1.20;;;20.00;65.10;;;;;;5048632;28;20210;-59
2023/03/08 08:53:18;;;;;;;1.38;1.25;;;20.00;65.10;;;;;;5049582;28;20203;-59
2023/03/08 08:55:45;;;;;;;1.08;0.95;;;20.00;65.10;;;;;;5048659;28;20215;-60
2023/03/08 08:58:12;;;;;;;1.27;1.17;;;20.00;65.10;;;;;;5048645;28;20206;-59
2023/03/08 09:00:41;;;;;;;1.30;1.15;;;20.00;65.10;;;;;;5047299;28;20199;-62
2023/03/08 09:03:07;;;;;;;1.00;0.80;;;20.00;65.10;;;;;;5044114;28;20192;-62
2023/03/08 09:05:38;;;;;;;1.35;1.00;;;20.00;65.10;;;;;;5048633;28;20222;-60
2023/03/08 09:08:05;;;;;;;1.02;0.90;;;20.10;65.20;;;;;;5049874;28;20199;-62
2023/03/08 09:10:35;;;;;;;2.65;0.95;;;20.00;66.00;;;;;;5043077;28;20199;-59
2023/03/08 09:13:02;;;;;;;1.10;0.95;;;20.00;65.10;;;;;;5047056;28;20199;-61
2023/03/08 09:15:28;;;;;;;1.50;1.30;;;20.00;65.10;;;;;;5049207;28;20208;-61
2023/03/08 09:17:57;;;;;;;1.27;0.98;;;20.00;65.10;;;;;;5048175;28;20207;-62
2023/03/08 09:20:23;;;;;;;2.40;1.17;;;20.00;65.10;;;;;;5047477;28;20416;-62
2023/03/08 09:22:50;;;;;;;1.30;1.00;;;20.00;65.10;;;;;;5042732;28;20718;-61
2023/03/08 09:25:18;;;;;;;1.77;0.80;;;20.00;65.10;;;;;;5052249;28;20229;-62
2023/03/08 09:27:45;;;;;;;0.90;0.80;;;20.00;65.90;;;;;;5049074;28;20291;-61
2023/03/08 09:30:14;;;;;;;1.50;1.27;;;20.00;65.10;;;;;;5050450;28;20200;-60
2023/03/08 09:32:41;;;;;;;1.10;1.00;;;20.00;65.10;;;;;;5046933;28;20187;-60
2023/03/08 09:35:09;;;;;;;1.35;1.00;;;20.00;65.10;;;;;;5050054;28;20210;-59
2023/03/08 09:37:36;;;;;;;0.90;0.75;;;20.00;65.10;;;;;;5048926;28;20224;-62
2023/03/08 09:40:08;;;;;;;1.00;0.82;;;20.00;65.10;;;;;;5044794;28;20196;-58
2023/03/08 09:42:37;;;;;;;10.40;1.67;;;20.00;65.10;;;;;;5048768;28;20276;-58
2023/03/08 09:45:08;;;;;;;8.57;1.30;;;20.10;65.10;;;;;;5044656;28;20655;-59
2023/03/08 09:47:45;;;;;;;8.18;1.20;;;20.10;65.00;;;;;;5050274;28;20202;-60
2023/03/08 09:50:30;;;;;;;14.00;1.50;;;20.10;65.10;;;;;;5047202;28;20265;-62
2023/03/08 09:53:02;;;;;;;9.98;1.20;;;20.10;65.00;;;;;;5049542;28;20275;-59
2023/03/08 09:55:32;;;;;;;2.95;0.82;;;20.10;65.10;;;;;;5047975;28;20207;-60
2023/03/08 09:58:01;;;;;;;1.30;0.90;;;20.00;65.00;;;;;;5046249;28;20266;-61
2023/03/08 10:00:31;;;;;;;6.13;1.30;;;20.00;65.00;;;;;;5044011;28;20215;-62
2023/03/08 10:03:12;;;;;;;3.25;1.00;;;20.00;65.00;;;;;;5046024;28;20252;-61
2023/03/08 10:05:42;;;;;;;3.05;1.40;;;20.00;65.00;;;;;;5047471;28;20702;-62
2023/03/08 10:08:14;;;;;;;1.40;1.00;;;20.00;65.00;;;;;;5040709;28;20667;-63
2023/03/08 10:10:48;;;;;;;5.18;1.10;;;20.10;65.10;;;;;;5043735;28;20768;-62
2023/03/08 10:13:30;;;;;;;1.13;1.00;;;20.00;65.00;;;;;;5041880;28;20682;-62
2023/03/08 10:16:10;;;;;;;2.40;1.00;;;20.00;65.00;;;;;;5045141;28;20200;-62
2023/03/08 10:18:44;;;;;;;1.38;1.20;;;20.00;65.00;;;;;;5043553;28;20576;-63
2023/03/08 10:21:16;;;;;;;5.70;1.00;;;20.00;65.00;;;;;;5044166;28;20200;-62
2023/03/08 10:23:46;;;;;;;6.65;1.00;;;20.00;65.00;;;;;;5042427;28;20648;-60
2023/03/08 10:26:14;;;;;;;2.17;0.90;;;20.00;65.00;;;;;;5042306;28;20298;-61
2023/03/08 10:28:41;;;;;;;2.35;1.13;;;20.10;65.10;;;;;;5037261;28;20200;-61
2023/03/08 10:31:22;;;;;;;0.90;0.70;;;20.10;65.10;;;;;;5047122;28;20203;-61
2023/03/08 10:33:53;;;;;;;1.65;1.00;;;20.00;65.00;;;;;;5045926;28;20195;-61
2023/03/08 10:36:24;;;;;;;2.10;1.00;;;20.00;65.00;;;;;;5047973;28;20559;-61
2023/03/08 10:39:04;;;;;;;1.15;1.00;;;20.10;65.10;;;;;;5037084;28;20655;-61
2023/03/08 10:41:36;;;;;;;1.50;1.20;;;20.10;65.10;;;;;;5044340;28;20199;-61
2023/03/08 10:44:03;;;;;;;3.08;0.98;;;20.00;65.10;;;;;;5045862;28;20678;-61
2023/03/08 10:46:31;;;;;;;1.10;0.90;;;20.00;65.10;;;;;;5039111;28;20463;-59
2023/03/08 10:49:08;;;;;;;2.80;1.15;;;20.00;65.10;;;;;;5040841;28;20245;-61
2023/03/08 10:51:36;;;;;;;1.05;0.80;;;20.10;65.10;;;;;;5049062;28;20228;-59
2023/03/08 10:54:05;;;;;;;1.20;1.10;;;20.10;65.20;;;;;;5046046;28;20196;-53
2023/03/08 10:56:38;;;;;;;1.10;0.80;;;20.10;65.20;;;;;;5045251;28;20207;-63
2023/03/08 10:59:06;;;;;;;5.13;1.10;;;20.10;65.20;;;;;;5043215;28;20188;-56
2023/03/08 11:01:34;;;;;;;1.00;0.90;;;20.10;65.20;;;;;;5047844;28;20195;-58
2023/03/08 11:04:03;;;;;;;1.17;0.90;;;20.20;65.40;;;;;;5045536;28;20231;-57
2023/03/08 11:06:30;;;;;;;5.70;1.08;;;20.20;65.40;;;;;;5048951;28;20219;-61
2023/03/08 11:09:00;;;;;;;2.35;0.90;;;20.20;66.30;;;;;;5046745;28;20262;-60
2023/03/08 11:11:27;;;;;;;3.05;1.17;;;20.20;65.60;;;;;;5049624;28;20195;-57
2023/03/08 11:13:55;;;;;;;1.42;0.98;;;20.20;65.70;;;;;;5042887;28;20196;-60
2023/03/08 11:16:41;;;;;;;1.88;0.80;;;20.20;65.80;;;;;;5044671;28;20199;-54
2023/03/08 11:19:20;;;;;;;3.63;0.98;;;20.20;65.80;;;;;;5046018;28;20222;-63
2023/03/08 11:21:54;;;;;;;1.20;0.95;;;20.20;65.90;;;;;;5045899;28;20219;-68
2023/03/08 11:24:33;;;;;;;1.45;0.80;;;20.30;66.00;;;;;;5045566;28;20199;-65
2023/03/08 11:27:15;;;;;;;1.10;0.88;;;20.30;66.00;;;;;;5043587;28;20420;-60
2023/03/08 11:29:53;;;;;;;1.55;1.00;;;20.30;66.10;;;;;;5044451;28;20200;-52
2023/03/08 11:32:34;;;;;;;2.28;0.90;;;20.30;66.00;;;;;;5044851;28;20223;-58
2023/03/08 11:35:11;;;;;;;2.13;0.80;;;20.30;66.10;;;;;;5044853;28;20198;-59
2023/03/08 11:37:44;;;;;;;0.93;0.77;;;20.30;66.10;;;;;;5043451;28;20199;-68
2023/03/08 11:40:25;;;;;;;1.73;0.90;;;20.40;66.20;;;;;;5039919;28;20192;-62
2023/03/08 11:43:10;;;;;;;1.70;0.90;;;20.40;66.20;;;;;;5045482;28;20211;-61
2023/03/08 11:45:44;;;;;;;1.20;1.00;;;20.40;66.20;;;;;;5047306;28;20192;-62
2023/03/08 11:48:41;;;;;;;2.15;1.20;;;20.40;66.30;;;;;;5046998;28;20202;-62
2023/03/08 11:51:14;;;;;;;1.30;0.80;;;20.40;66.30;;;;;;5037818;28;20207;-54
2023/03/08 11:53:53;;;;;;;1.00;0.90;;;20.40;66.30;;;;;;5045635;28;20752;-64
2023/03/08 11:56:37;;;;;;;1.15;0.70;;;20.40;66.30;;;;;;5046072;28;20207;-58
2023/03/08 11:59:10;;;;;;;1.48;0.90;;;20.40;66.30;;;;;;5039426;28;20198;-58
2023/03/08 12:01:45;;;;;;;2.15;0.90;;;20.40;66.30;;;;;;5048109;28;20199;-58
2023/03/08 12:04:18;;;;;;;0.85;0.70;;;20.40;66.30;;;;;;5039113;28;20878;-59
2023/03/08 12:06:46;;;;;;;0.90;0.73;;;20.40;66.30;;;;;;5033347;28;20220;-59
2023/03/08 12:09:21;;;;;;;1.00;0.80;;;20.50;66.40;;;;;;5046187;28;20192;-58
2023/03/08 12:11:54;;;;;;;1.00;0.90;;;20.50;66.40;;;;;;5041587;28;20485;-58
2023/03/08 12:14:25;;;;;;;0.90;0.70;;;20.50;66.40;;;;;;5049471;28;20206;-57
2023/03/08 12:16:59;;;;;;;1.00;0.70;;;20.50;66.40;;;;;;5047378;28;20638;-58
2023/03/08 12:19:32;;;;;;;3.67;1.10;;;20.50;66.40;;;;;;5042051;28;20679;-54
2023/03/08 12:22:11;;;;;;;1.00;0.88;;;20.50;66.40;;;;;;5043125;28;20227;-63
2023/03/08 12:24:46;;;;;;;1.10;0.90;;;20.50;66.40;;;;;;5045587;28;20191;-63
2023/03/08 12:27:21;;;;;;;0.98;0.77;;;20.50;66.40;;;;;;5038281;28;20703;-61
2023/03/08 12:29:52;;;;;;;1.10;0.70;;;20.50;67.20;;;;;;5044152;28;20198;-56
2023/03/08 12:32:20;;;;;;;1.00;0.90;;;20.50;66.40;;;;;;5046591;28;20472;-60
2023/03/08 12:34:48;;;;;;;0.97;0.70;;;20.50;66.40;;;;;;5042120;28;20198;-53
2023/03/08 12:37:23;;;;;;;0.90;0.80;;;20.50;66.40;;;;;;5048237;28;20472;-56
2023/03/08 12:40:04;;;;;;;0.90;0.80;;;20.50;66.40;;;;;;5047941;28;20199;-57
2023/03/08 12:42:35;;;;;;;3.17;0.77;;;20.50;66.40;;;;;;5048333;28;20618;-57
2023/03/08 12:45:29;;;;;;;2.13;0.80;;;20.60;66.40;;;;;;5054157;28;20662;-52
2023/03/08 12:48:00;;;;;;;1.85;0.88;;;20.60;66.50;;;;;;5050691;28;20318;-56
2023/03/08 12:50:28;;;;;;;0.90;0.80;;;20.60;66.50;;;;;;5040456;28;20690;-65
2023/03/08 12:52:55;;;;;;;1.00;0.73;;;20.60;66.50;;;;;;5041206;28;20469;-58
2023/03/08 12:55:30;;;;;;;1.10;0.80;;;20.60;66.50;;;;;;5047460;28;20913;-57
2023/03/08 12:58:00;;;;;;;0.90;0.77;;;20.60;66.50;;;;;;5044400;28;20257;-58